Time;durP1;ratioP1;P1;durP2;ratioP2;P2;SDS_P1;SDS_P2;PMS_P1;PMS_P2;Temp;Humidity;BMP_temperature;BMP_pressure;BME280_temperature;BME280_humidity;BME280_pressure;Samples;Min_cycle;Max_cycle;Signal;HPM_P1;HPM_P2
2022/03/22 00:00:57;;;;;;;9.68;6.70;;;;;;;;;;5089653;28;20028;-73
2022/03/22 00:03:26;;;;;;;8.88;7.45;;;;;;;;;;5091106;28;20020;-73
2022/03/22 00:05:52;;;;;;;10.23;7.03;;;;;;;;;;5089570;28;20384;-73
2022/03/22 00:08:18;;;;;;;8.88;6.53;;;;;;;;;;5090961;28;20030;-73
2022/03/22 00:10:45;;;;;;;8.82;6.20;;;;;;;;;;5090900;28;20028;-73
2022/03/22 00:13:11;;;;;;;9.10;6.70;;;;;;;;;;5091190;28;20024;-74
2022/03/22 00:15:37;;;;;;;9.73;7.00;;;;;;;;;;5091049;28;20036;-73
2022/03/22 00:18:03;;;;;;;8.52;6.28;;;;;;;;;;5091176;28;20531;-74
2022/03/22 00:20:29;;;;;;;9.38;6.88;;;;;;;;;;5091473;28;20024;-74
2022/03/22 00:22:55;;;;;;;9.95;7.07;;;;;;;;;;5090750;28;20028;-73
2022/03/22 00:25:22;;;;;;;10.70;7.57;;;;;;;;;;5090815;28;20028;-75
2022/03/22 00:27:55;;;;;;;9.15;6.93;;;;;;;;;;5090688;28;20023;-73
2022/03/22 00:30:26;;;;;;;11.15;7.10;;;;;;;;;;5091027;28;20028;-75
2022/03/22 00:32:53;;;;;;;7.95;6.53;;;;;;;;;;5090536;28;20446;-73
2022/03/22 00:35:19;;;;;;;7.45;5.68;;;;;;;;;;5089243;28;20411;-74
2022/03/22 00:37:49;;;;;;;8.70;7.00;;;;;;;;;;5093721;28;20019;-74
2022/03/22 00:40:18;;;;;;;11.73;7.30;;;;;;;;;;5111394;28;20077;-73
2022/03/22 00:42:48;;;;;;;9.30;7.00;;;;;;;;;;5115287;28;20022;-73
2022/03/22 00:45:16;;;;;;;9.25;7.13;;;;;;;;;;5115032;28;20023;-73
2022/03/22 00:47:42;;;;;;;10.45;6.85;;;;;;;;;;5114970;28;20016;-73
2022/03/22 00:50:08;;;;;;;8.20;6.30;;;;;;;;;;5115134;28;20074;-73
2022/03/22 00:52:35;;;;;;;8.98;7.00;;;;;;;;;;5114981;28;20024;-73
2022/03/22 00:55:02;;;;;;;10.13;6.82;;;;;;;;;;5115266;28;20039;-75
2022/03/22 00:57:28;;;;;;;8.93;6.47;;;;;;;;;;5111308;28;20106;-73
2022/03/22 01:00:04;;;;;;;9.13;6.22;;;;;;;;;;5094397;28;20054;-75
2022/03/22 01:02:31;;;;;;;7.60;6.38;;;;;;;;;;5094788;28;20027;-73
2022/03/22 01:04:57;;;;;;;9.65;6.70;;;;;;;;;;5094771;28;20500;-73
2022/03/22 01:07:23;;;;;;;9.38;7.00;;;;;;;;;;5094346;28;20025;-72
2022/03/22 01:09:50;;;;;;;9.38;7.18;;;;;;;;;;5092895;28;20032;-73
2022/03/22 01:12:16;;;;;;;9.50;7.25;;;;;;;;;;5094153;28;20020;-73
2022/03/22 01:14:42;;;;;;;11.05;7.22;;;;;;;;;;5093722;28;20115;-71
2022/03/22 01:17:08;;;;;;;10.32;7.22;;;;;;;;;;5094409;28;20021;-71
2022/03/22 01:19:35;;;;;;;7.75;6.03;;;;;;;;;;5092615;28;20032;-71
2022/03/22 01:22:01;;;;;;;10.30;7.28;;;;;;;;;;5094345;28;20027;-74
2022/03/22 01:24:27;;;;;;;9.05;6.85;;;;;;;;;;5094265;28;20021;-75
2022/03/22 01:26:53;;;;;;;8.57;6.80;;;;;;;;;;5093708;28;20035;-71
2022/03/22 01:29:19;;;;;;;12.18;7.95;;;;;;;;;;5093742;28;20399;-74
2022/03/22 01:31:45;;;;;;;10.13;6.97;;;;;;;;;;5093735;28;20399;-72
2022/03/22 01:34:12;;;;;;;8.98;6.28;;;;;;;;;;5093850;28;20039;-73
2022/03/22 01:36:38;;;;;;;10.57;7.32;;;;;;;;;;5093669;28;20035;-71
2022/03/22 01:39:04;;;;;;;9.15;6.68;;;;;;;;;;5106601;28;20102;-73
2022/03/22 01:41:30;;;;;;;8.82;6.88;;;;;;;;;;5114581;28;20038;-72
2022/03/22 01:43:56;;;;;;;8.63;6.60;;;;;;;;;;5113595;28;20019;-73
2022/03/22 01:46:24;;;;;;;10.18;6.93;;;;;;;;;;5112839;28;20508;-75
2022/03/22 01:48:50;;;;;;;8.35;6.57;;;;;;;;;;5113908;28;20480;-74
2022/03/22 01:51:17;;;;;;;10.05;7.05;;;;;;;;;;5114026;28;20030;-74
2022/03/22 01:53:43;;;;;;;9.75;6.93;;;;;;;;;;5111018;28;20020;-73
2022/03/22 01:56:11;;;;;;;10.65;7.18;;;;;;;;;;5113942;28;20030;-75
2022/03/22 01:58:37;;;;;;;9.20;6.70;;;;;;;;;;5106282;28;20021;-72
2022/03/22 02:06:33;;;;;;;11.07;7.25;;;;;;;;;;5113486;28;20046;-72
2022/03/22 02:08:59;;;;;;;8.45;6.53;;;;;;;;;;5102605;28;20028;-73
2022/03/22 02:11:25;;;;;;;9.60;6.65;;;;;;;;;;5093248;28;20051;-73
2022/03/22 02:13:51;;;;;;;8.55;6.20;;;;;;;;;;5092810;28;20484;-72
2022/03/22 02:16:19;;;;;;;8.77;6.20;;;;;;;;;;5093077;28;20035;-74
2022/03/22 02:18:46;;;;;;;10.45;6.60;;;;;;;;;;5092861;28;20020;-76
2022/03/22 02:21:15;;;;;;;8.63;6.30;;;;;;;;;;5104118;28;20039;-72
2022/03/22 02:23:47;;;;;;;8.30;6.60;;;;;;;;;;5112913;28;20027;-73
2022/03/22 02:26:13;;;;;;;8.50;6.35;;;;;;;;;;5113079;28;20031;-72
2022/03/22 02:28:42;;;;;;;8.13;6.60;;;;;;;;;;5106747;28;20530;-71
2022/03/22 02:31:08;;;;;;;6.28;5.53;;;;;;;;;;5087535;28;20058;-72
2022/03/22 02:33:34;;;;;;;9.80;6.25;;;;;;;;;;5086035;28;20060;-72
2022/03/22 02:36:00;;;;;;;7.85;6.38;;;;;;;;;;5086465;28;20035;-72
2022/03/22 02:38:26;;;;;;;9.20;6.45;;;;;;;;;;5084790;28;20024;-73
2022/03/22 02:40:52;;;;;;;9.85;6.90;;;;;;;;;;5087975;28;20046;-72
2022/03/22 02:43:18;;;;;;;8.05;6.45;;;;;;;;;;5086038;28;20522;-73
2022/03/22 02:45:44;;;;;;;7.68;6.13;;;;;;;;;;5085900;28;20024;-72
2022/03/22 02:48:11;;;;;;;7.93;5.95;;;;;;;;;;5085714;28;20028;-72
2022/03/22 02:50:37;;;;;;;8.63;5.97;;;;;;;;;;5085584;28;20407;-72
2022/03/22 02:53:03;;;;;;;8.75;5.75;;;;;;;;;;5085756;28;20039;-74
2022/03/22 02:55:29;;;;;;;7.50;6.22;;;;;;;;;;5085797;28;20487;-74
2022/03/22 02:57:56;;;;;;;7.25;5.60;;;;;;;;;;5085312;28;20024;-73
2022/03/22 03:00:23;;;;;;;8.68;6.72;;;;;;;;;;5085984;28;20358;-75
2022/03/22 03:02:50;;;;;;;6.38;5.35;;;;;;;;;;5086039;28;20020;-74
2022/03/22 03:05:20;;;;;;;7.78;5.90;;;;;;;;;;5085174;28;20403;-73
2022/03/22 03:07:47;;;;;;;7.25;5.78;;;;;;;;;;5085583;28;20032;-74
2022/03/22 03:10:13;;;;;;;8.00;5.68;;;;;;;;;;5086586;28;20484;-75
2022/03/22 03:12:40;;;;;;;8.90;6.35;;;;;;;;;;5085301;28;20051;-74
2022/03/22 03:15:08;;;;;;;8.85;6.22;;;;;;;;;;5085236;28;20044;-74
2022/03/22 03:17:34;;;;;;;8.55;5.95;;;;;;;;;;5084701;28;20016;-74
2022/03/22 03:20:01;;;;;;;9.43;6.72;;;;;;;;;;5084197;28;20119;-75
2022/03/22 03:22:27;;;;;;;7.47;6.10;;;;;;;;;;5085471;28;20457;-74
2022/03/22 03:24:53;;;;;;;7.72;6.30;;;;;;;;;;5084696;28;20679;-73
2022/03/22 03:27:19;;;;;;;9.20;6.57;;;;;;;;;;5085066;28;20438;-75
2022/03/22 03:29:46;;;;;;;9.10;6.35;;;;;;;;;;5084906;28;20449;-72
2022/03/22 03:32:12;;;;;;;8.05;5.78;;;;;;;;;;5085271;28;20111;-75
2022/03/22 03:34:38;;;;;;;9.20;6.05;;;;;;;;;;5084969;28;20186;-73
2022/03/22 03:37:04;;;;;;;8.02;6.50;;;;;;;;;;5084787;28;20392;-76
2022/03/22 03:39:30;;;;;;;7.85;5.93;;;;;;;;;;5084378;28;20028;-76
2022/03/22 03:41:57;;;;;;;9.05;6.18;;;;;;;;;;5087297;28;20074;-74
2022/03/22 03:47:11;;;;;;;8.35;6.55;;;;;;;;;;5085357;28;20085;-74
2022/03/22 03:49:42;;;;;;;8.98;6.57;;;;;;;;;;5086484;28;20399;-73
2022/03/22 03:52:09;;;;;;;8.52;6.45;;;;;;;;;;5100598;28;20110;-77
2022/03/22 03:54:35;;;;;;;8.93;6.47;;;;;;;;;;5111502;28;20126;-74
2022/03/22 03:57:01;;;;;;;7.57;6.22;;;;;;;;;;5094336;28;20503;-73
2022/03/22 03:59:27;;;;;;;7.20;5.85;;;;;;;;;;5091561;28;20066;-74
2022/03/22 04:01:53;;;;;;;6.90;6.13;;;;;;;;;;5090882;28;20027;-73
2022/03/22 04:04:19;;;;;;;7.72;6.10;;;;;;;;;;5091182;28;20107;-76
2022/03/22 04:06:47;;;;;;;8.15;5.90;;;;;;;;;;5089762;28;20074;-74
2022/03/22 04:09:13;;;;;;;7.63;6.30;;;;;;;;;;5107476;28;20023;-75
2022/03/22 04:11:39;;;;;;;8.00;6.10;;;;;;;;;;5111378;28;20053;-74
2022/03/22 04:14:06;;;;;;;8.25;6.40;;;;;;;;;;5111153;28;20510;-76
2022/03/22 04:16:32;;;;;;;8.07;6.18;;;;;;;;;;5113122;28;20398;-74
2022/03/22 04:18:58;;;;;;;7.15;5.63;;;;;;;;;;5116103;28;20472;-75
2022/03/22 04:21:24;;;;;;;7.88;6.07;;;;;;;;;;5115756;28;20031;-74
2022/03/22 04:23:51;;;;;;;7.25;6.00;;;;;;;;;;5114193;28;20057;-73
2022/03/22 04:26:17;;;;;;;8.18;6.10;;;;;;;;;;5114278;28;20108;-74
2022/03/22 04:34:12;;;;;;;7.65;5.93;;;;;;;;;;5115202;28;20126;-72
2022/03/22 04:36:38;;;;;;;7.20;6.50;;;;;;;;;;5114983;28;20542;-72
2022/03/22 04:39:04;;;;;;;7.38;6.05;;;;;;;;;;5115157;28;20047;-73
2022/03/22 04:41:30;;;;;;;8.55;6.28;;;;;;;;;;5115596;28;20364;-72
2022/03/22 04:43:56;;;;;;;7.85;6.03;;;;;;;;;;5111045;28;20023;-73
2022/03/22 04:46:23;;;;;;;8.02;6.22;;;;;;;;;;5094867;28;20157;-72
2022/03/22 04:48:49;;;;;;;8.55;6.00;;;;;;;;;;5094589;28;20372;-72
2022/03/22 04:56:48;;;;;;;6.57;5.78;;;;;;;;;;5112577;28;20074;-73
2022/03/22 04:59:15;;;;;;;10.02;6.50;;;;;;;;;;5114811;28;20015;-72
2022/03/22 05:01:45;;;;;;;7.78;6.30;;;;;;;;;;5114725;28;20034;-73
2022/03/22 05:04:11;;;;;;;8.15;5.75;;;;;;;;;;5114754;28;20111;-73
2022/03/22 05:06:38;;;;;;;7.78;5.68;;;;;;;;;;5114664;28;20065;-73
2022/03/22 05:09:07;;;;;;;8.07;5.78;;;;;;;;;;5114746;28;20371;-73
2022/03/22 05:11:34;;;;;;;8.85;6.00;;;;;;;;;;5108301;28;20088;-72
2022/03/22 05:14:00;;;;;;;7.70;5.65;;;;;;;;;;5094724;28;20030;-73
2022/03/22 05:16:26;;;;;;;7.90;6.25;;;;;;;;;;5094039;28;20028;-74
2022/03/22 05:18:53;;;;;;;6.80;5.35;;;;;;;;;;5093932;28;20562;-73
2022/03/22 05:21:19;;;;;;;9.57;5.88;;;;;;;;;;5094213;28;20035;-74
2022/03/22 05:23:46;;;;;;;7.82;6.07;;;;;;;;;;5093820;28;20042;-73
2022/03/22 05:26:12;;;;;;;7.88;5.60;;;;;;;;;;5093809;28;20086;-74
2022/03/22 05:28:39;;;;;;;8.43;6.22;;;;;;;;;;5093849;28;20028;-73
2022/03/22 05:31:05;;;;;;;6.60;5.38;;;;;;;;;;5093745;28;20067;-74
2022/03/22 05:33:31;;;;;;;7.40;5.97;;;;;;;;;;5094258;28;20025;-74
2022/03/22 05:35:58;;;;;;;8.30;6.18;;;;;;;;;;5093296;28;20089;-73
2022/03/22 05:38:25;;;;;;;9.00;6.57;;;;;;;;;;5109012;28;20045;-73
2022/03/22 05:40:51;;;;;;;8.13;5.43;;;;;;;;;;5112121;28;20065;-73
2022/03/22 05:43:17;;;;;;;8.57;6.13;;;;;;;;;;5093598;28;20399;-74
2022/03/22 05:45:48;;;;;;;7.63;5.43;;;;;;;;;;5093452;28;20541;-72
2022/03/22 05:48:14;;;;;;;6.72;5.63;;;;;;;;;;5092458;28;20024;-73
2022/03/22 05:50:40;;;;;;;9.10;6.25;;;;;;;;;;5092114;28;20487;-73
2022/03/22 05:53:06;;;;;;;6.68;5.25;;;;;;;;;;5095866;28;20027;-73
2022/03/22 05:55:32;;;;;;;6.13;5.50;;;;;;;;;;5113545;28;20035;-74
2022/03/22 05:57:58;;;;;;;7.18;5.45;;;;;;;;;;5114395;28;20062;-72
2022/03/22 06:00:24;;;;;;;7.53;5.53;;;;;;;;;;5110449;28;20515;-73
2022/03/22 06:02:50;;;;;;;6.80;5.38;;;;;;;;;;5088803;28;20027;-73
2022/03/22 06:05:16;;;;;;;7.82;5.32;;;;;;;;;;5102737;28;20023;-73
2022/03/22 06:07:43;;;;;;;7.53;5.53;;;;;;;;;;5113478;28;20377;-74
2022/03/22 06:10:12;;;;;;;6.85;5.75;;;;;;;;;;5095423;28;20130;-74
2022/03/22 06:12:46;;;;;;;7.05;4.68;;;;;;;;;;5091502;28;20427;-77
2022/03/22 06:15:18;;;;;;;8.20;5.65;;;;;;;;;;5093107;28;20028;-74
2022/03/22 06:18:11;;;;;;;7.85;5.53;;;;;;;;;;5092917;28;20023;-76
2022/03/22 06:20:44;;;;;;;7.90;5.22;;;;;;;;;;5089319;28;20093;-73
2022/03/22 06:23:12;;;;;;;8.60;5.15;;;;;;;;;;5092954;28;20028;-74
2022/03/22 06:25:38;;;;;;;8.57;5.40;;;;;;;;;;5091238;28;20131;-73
2022/03/22 06:28:06;;;;;;;6.65;5.10;;;;;;;;;;5091608;28;20031;-73
2022/03/22 06:30:33;;;;;;;7.35;5.15;;;;;;;;;;5069288;28;20025;-72
2022/03/22 06:33:00;;;;;;;8.60;5.20;;;;;;;;;;5085747;28;20035;-74
2022/03/22 06:35:33;;;;;;;9.15;5.88;;;;;;;;;;5091429;28;20395;-74
2022/03/22 06:37:59;;;;;;;7.63;5.32;;;;;;;;;;5092721;28;20032;-72
2022/03/22 06:40:29;;;;;;;8.13;5.43;;;;;;;;;;5092306;28;20547;-73
2022/03/22 06:42:55;;;;;;;7.70;5.28;;;;;;;;;;5092404;28;20024;-73
2022/03/22 06:45:22;;;;;;;8.07;5.78;;;;;;;;;;5091178;28;20032;-74
2022/03/22 06:47:48;;;;;;;6.82;4.93;;;;;;;;;;5091941;28;20024;-73
2022/03/22 06:50:15;;;;;;;8.43;5.60;;;;;;;;;;5091742;28;20031;-74
2022/03/22 06:52:41;;;;;;;8.25;5.18;;;;;;;;;;5099838;28;20109;-73
2022/03/22 06:55:08;;;;;;;6.68;5.53;;;;;;;;;;5112643;28;20039;-73
2022/03/22 06:57:35;;;;;;;6.68;4.90;;;;;;;;;;5112643;28;20365;-74
2022/03/22 07:00:01;;;;;;;7.35;5.25;;;;;;;;;;5111574;28;20027;-73
2022/03/22 07:02:27;;;;;;;6.25;5.30;;;;;;;;;;5112834;28;20027;-74
2022/03/22 07:04:53;;;;;;;8.82;5.90;;;;;;;;;;5108360;28;20110;-74
2022/03/22 07:07:20;;;;;;;7.72;6.15;;;;;;;;;;5093503;28;20070;-75
2022/03/22 07:09:46;;;;;;;10.18;5.97;;;;;;;;;;5091442;28;20036;-73
2022/03/22 07:12:16;;;;;;;7.45;5.47;;;;;;;;;;5092270;28;20024;-73
2022/03/22 07:14:42;;;;;;;6.07;4.95;;;;;;;;;;5090110;28;20114;-72
2022/03/22 07:17:08;;;;;;;9.73;5.82;;;;;;;;;;5092005;28;20417;-76
2022/03/22 07:19:35;;;;;;;8.35;5.60;;;;;;;;;;5091664;28;20024;-74
2022/03/22 07:22:01;;;;;;;6.18;4.88;;;;;;;;;;5092325;28;20440;-75
2022/03/22 07:24:27;;;;;;;11.23;5.90;;;;;;;;;;5091379;28;20020;-75
2022/03/22 07:26:54;;;;;;;6.40;5.00;;;;;;;;;;5090155;28;20031;-76
2022/03/22 07:29:20;;;;;;;7.97;6.25;;;;;;;;;;5090536;28;20020;-78
2022/03/22 07:31:46;;;;;;;10.82;5.38;;;;;;;;;;5089682;28;20055;-73
2022/03/22 07:34:15;;;;;;;10.30;5.70;;;;;;;;;;5091532;28;20119;-77
2022/03/22 07:36:41;;;;;;;7.50;6.00;;;;;;;;;;5091382;28;20020;-75
2022/03/22 07:39:08;;;;;;;8.65;6.05;;;;;;;;;;5091717;28;20157;-79
2022/03/22 07:41:35;;;;;;;8.48;5.72;;;;;;;;;;5089913;28;20024;-75
2022/03/22 07:44:01;;;;;;;8.95;6.32;;;;;;;;;;5090237;28;20036;-77
2022/03/22 07:46:28;;;;;;;8.13;5.50;;;;;;;;;;5090439;28;20028;-74
2022/03/22 07:48:54;;;;;;;8.65;5.40;;;;;;;;;;5089330;28;20027;-77
2022/03/22 07:54:05;;;;;;;8.52;5.30;;;;;;;;;;5091523;28;20549;-75
2022/03/22 07:56:31;;;;;;;9.20;5.80;;;;;;;;;;5091731;28;20408;-74
2022/03/22 07:58:57;;;;;;;8.45;5.53;;;;;;;;;;5089738;28;20020;-73
2022/03/22 08:01:24;;;;;;;8.20;5.00;;;;;;;;;;5091211;28;20059;-75
2022/03/22 08:03:50;;;;;;;8.40;5.53;;;;;;;;;;5091055;28;20012;-74
2022/03/22 08:06:16;;;;;;;9.07;5.60;;;;;;;;;;5091255;28;20024;-76
2022/03/22 08:08:44;;;;;;;9.10;5.65;;;;;;;;;;5089662;28;20016;-73
2022/03/22 08:11:10;;;;;;;8.23;5.47;;;;;;;;;;5091241;28;20024;-72
2022/03/22 08:13:37;;;;;;;15.88;5.22;;;;;;;;;;5089521;28;20028;-73
2022/03/22 08:16:04;;;;;;;9.23;5.78;;;;;;;;;;5091324;28;20028;-73
2022/03/22 08:18:29;;;;;;;9.93;5.68;;;;;;;;;;5091590;28;20017;-76
2022/03/22 08:20:56;;;;;;;8.35;5.28;;;;;;;;;;5090922;28;20128;-74
2022/03/22 08:23:22;;;;;;;8.32;4.93;;;;;;;;;;5091187;28;20376;-73
2022/03/22 08:25:50;;;;;;;8.93;5.47;;;;;;;;;;5090684;28;20036;-75
2022/03/22 08:28:17;;;;;;;7.47;5.95;;;;;;;;;;5090961;28;20081;-73
2022/03/22 08:30:43;;;;;;;9.20;5.50;;;;;;;;;;5090746;28;20020;-75
2022/03/22 08:33:09;;;;;;;7.35;5.80;;;;;;;;;;5089757;28;20032;-76
2022/03/22 08:35:45;;;;;;;7.47;5.03;;;;;;;;;;5089464;28;20031;-79
2022/03/22 08:38:12;;;;;;;12.45;5.70;;;;;;;;;;5091400;28;20492;-74
2022/03/22 08:40:38;;;;;;;6.88;4.97;;;;;;;;;;5090662;28;20425;-75
2022/03/22 08:43:08;;;;;;;7.93;5.90;;;;;;;;;;5089718;28;20020;-74
2022/03/22 08:45:34;;;;;;;9.00;4.60;;;;;;;;;;5089426;28;20369;-72
2022/03/22 08:48:02;;;;;;;6.53;5.10;;;;;;;;;;5091228;28;20031;-76
2022/03/22 08:50:28;;;;;;;7.35;5.32;;;;;;;;;;5091347;28;20012;-73
2022/03/22 08:52:56;;;;;;;7.43;5.40;;;;;;;;;;5090697;28;20024;-79
2022/03/22 08:55:23;;;;;;;7.47;5.18;;;;;;;;;;5090800;28;20066;-76
2022/03/22 08:57:49;;;;;;;6.88;5.13;;;;;;;;;;5090660;28;20031;-72
2022/03/22 09:00:16;;;;;;;9.02;6.75;;;;;;;;;;5089450;28;20055;-74
2022/03/22 09:02:43;;;;;;;8.75;6.22;;;;;;;;;;5094881;28;20123;-74
2022/03/22 09:08:00;;;;;;;9.88;6.05;;;;;;;;;;5091314;28;20494;-74
2022/03/22 09:10:27;;;;;;;10.63;7.00;;;;;;;;;;5091648;28;20120;-76
2022/03/22 09:12:53;;;;;;;7.18;5.70;;;;;;;;;;5092548;28;20020;-79
2022/03/22 09:15:20;;;;;;;10.20;6.47;;;;;;;;;;5092702;28;20542;-73
2022/03/22 09:17:47;;;;;;;13.55;7.63;;;;;;;;;;5092464;28;20020;-73
2022/03/22 09:20:13;;;;;;;9.93;7.00;;;;;;;;;;5092759;28;20031;-73
2022/03/22 09:22:43;;;;;;;10.75;7.07;;;;;;;;;;5092458;28;20379;-76
2022/03/22 09:25:12;;;;;;;10.18;6.72;;;;;;;;;;5089870;28;20097;-73
2022/03/22 09:27:41;;;;;;;12.65;6.63;;;;;;;;;;5092360;28;20081;-72
2022/03/22 09:30:07;;;;;;;10.75;6.88;;;;;;;;;;5091125;28;20070;-72
2022/03/22 09:32:35;;;;;;;9.35;6.60;;;;;;;;;;5092097;28;20028;-73
2022/03/22 09:35:01;;;;;;;9.70;6.55;;;;;;;;;;5092801;28;20426;-72
2022/03/22 09:37:31;;;;;;;10.05;6.30;;;;;;;;;;5092594;28;20020;-72
2022/03/22 09:39:57;;;;;;;9.05;6.13;;;;;;;;;;5092280;28;20020;-72
2022/03/22 09:42:23;;;;;;;11.43;6.53;;;;;;;;;;5092241;28;20020;-72
2022/03/22 09:44:51;;;;;;;7.68;5.50;;;;;;;;;;5090521;28;20085;-72
2022/03/22 09:47:17;;;;;;;8.10;5.47;;;;;;;;;;5092320;28;20109;-73
2022/03/22 09:49:43;;;;;;;10.18;6.15;;;;;;;;;;5091918;28;20024;-72
2022/03/22 09:52:10;;;;;;;9.98;6.32;;;;;;;;;;5090783;28;20476;-73
2022/03/22 09:54:36;;;;;;;7.93;5.88;;;;;;;;;;5092376;28;20028;-73
2022/03/22 09:57:04;;;;;;;9.95;5.75;;;;;;;;;;5093760;28;20026;-73
2022/03/22 09:59:31;;;;;;;8.35;5.57;;;;;;;;;;5092216;28;20024;-73
2022/03/22 10:02:00;;;;;;;7.38;5.57;;;;;;;;;;5091946;28;20480;-74
2022/03/22 10:04:35;;;;;;;7.28;5.30;;;;;;;;;;5092119;28;20039;-72
2022/03/22 10:07:03;;;;;;;10.80;6.18;;;;;;;;;;5093796;28;20032;-72
2022/03/22 10:09:34;;;;;;;8.75;6.10;;;;;;;;;;5093571;28;20020;-73
2022/03/22 10:12:00;;;;;;;9.30;6.20;;;;;;;;;;5093053;28;20032;-73
2022/03/22 10:14:39;;;;;;;9.70;6.50;;;;;;;;;;5090668;28;20068;-72
2022/03/22 10:17:16;;;;;;;7.50;5.70;;;;;;;;;;5092636;28;20024;-73
2022/03/22 10:19:43;;;;;;;7.55;5.93;;;;;;;;;;5100885;28;20399;-72
2022/03/22 10:22:12;;;;;;;11.05;6.63;;;;;;;;;;5096415;28;20032;-73
2022/03/22 10:24:45;;;;;;;7.80;5.82;;;;;;;;;;5091326;28;20116;-73
2022/03/22 10:27:20;;;;;;;9.23;6.45;;;;;;;;;;5091735;28;20122;-72
2022/03/22 10:29:46;;;;;;;8.07;5.80;;;;;;;;;;5092633;28;20069;-73
2022/03/22 10:32:12;;;;;;;7.97;5.53;;;;;;;;;;5093433;28;20052;-73
2022/03/22 10:34:38;;;;;;;7.30;5.35;;;;;;;;;;5092497;28;20115;-74
2022/03/22 10:37:04;;;;;;;7.60;5.32;;;;;;;;;;5092593;28;20434;-73
2022/03/22 10:39:34;;;;;;;7.25;5.40;;;;;;;;;;5091740;28;20557;-73
2022/03/22 10:42:08;;;;;;;8.07;5.15;;;;;;;;;;5092642;28;20024;-72
2022/03/22 10:44:35;;;;;;;8.00;5.80;;;;;;;;;;5091412;28;20499;-72
2022/03/22 10:47:02;;;;;;;7.60;5.15;;;;;;;;;;5093048;28;20459;-74
2022/03/22 10:49:29;;;;;;;9.38;6.18;;;;;;;;;;5091694;28;20028;-75
2022/03/22 10:51:56;;;;;;;7.28;5.70;;;;;;;;;;5091928;28;20027;-72
2022/03/22 10:54:22;;;;;;;8.27;5.70;;;;;;;;;;5092412;28;20125;-72
2022/03/22 10:56:55;;;;;;;8.30;6.10;;;;;;;;;;5092433;28;21733;-73
2022/03/22 10:59:25;;;;;;;11.88;6.65;;;;;;;;;;5089471;28;21075;-74
2022/03/22 11:01:52;;;;;;;7.20;5.28;;;;;;;;;;5092129;28;20028;-73
2022/03/22 11:04:21;;;;;;;8.43;6.03;;;;;;;;;;5092330;28;20519;-73
2022/03/22 11:06:48;;;;;;;9.48;5.60;;;;;;;;;;5090719;28;20047;-73
2022/03/22 11:09:15;;;;;;;8.02;5.70;;;;;;;;;;5092206;28;20426;-75
2022/03/22 11:11:41;;;;;;;7.00;5.10;;;;;;;;;;5092017;28;20030;-74
2022/03/22 11:14:07;;;;;;;6.15;5.30;;;;;;;;;;5092101;28;20460;-72
2022/03/22 11:16:34;;;;;;;8.73;5.32;;;;;;;;;;5091745;28;20039;-75
2022/03/22 11:19:01;;;;;;;8.80;5.93;;;;;;;;;;5092210;28;20094;-76
2022/03/22 11:21:28;;;;;;;7.65;5.45;;;;;;;;;;5095013;28;20086;-73
2022/03/22 11:24:04;;;;;;;7.22;5.22;;;;;;;;;;5091707;28;20035;-73
2022/03/22 11:26:30;;;;;;;8.63;5.50;;;;;;;;;;5090263;28;20429;-73
2022/03/22 11:28:56;;;;;;;8.00;5.68;;;;;;;;;;5090072;28;20020;-73
2022/03/22 11:31:26;;;;;;;7.15;4.97;;;;;;;;;;5090232;28;20376;-72
2022/03/22 11:34:12;;;;;;;6.05;4.82;;;;;;;;;;5089878;28;20028;-73
2022/03/22 11:36:44;;;;;;;7.30;4.55;;;;;;;;;;5078278;28;20175;-74
2022/03/22 11:39:15;;;;;;;5.88;4.72;;;;;;;;;;5086482;28;20505;-74
2022/03/22 11:44:34;;;;;;;8.18;5.10;;;;;;;;;;5088878;28;20478;-73
2022/03/22 11:47:07;;;;;;;5.93;4.38;;;;;;;;;;5090499;28;20020;-73
2022/03/22 11:49:59;;;;;;;6.93;5.05;;;;;;;;;;5091386;28;20032;-73
2022/03/22 11:52:46;;;;;;;6.63;4.72;;;;;;;;;;5087702;28;20032;-73
2022/03/22 11:55:21;;;;;;;5.68;4.75;;;;;;;;;;5091206;28;20036;-73
2022/03/22 11:57:47;;;;;;;6.03;4.82;;;;;;;;;;5090574;28;20023;-74
2022/03/22 12:00:14;;;;;;;7.05;4.30;;;;;;;;;;5089774;28;20020;-73
2022/03/22 12:02:42;;;;;;;6.43;4.97;;;;;;;;;;5088661;28;20024;-73
2022/03/22 12:05:08;;;;;;;8.30;4.68;;;;;;;;;;5091265;28;20527;-74
2022/03/22 12:07:37;;;;;;;7.00;4.97;;;;;;;;;;5090559;28;20020;-75
2022/03/22 12:10:12;;;;;;;7.65;5.10;;;;;;;;;;5087212;28;20016;-76
2022/03/22 12:12:40;;;;;;;7.30;4.43;;;;;;;;;;5089257;28;20510;-73
2022/03/22 12:15:07;;;;;;;6.20;4.75;;;;;;;;;;5088116;28;20082;-74
2022/03/22 12:17:33;;;;;;;5.95;4.80;;;;;;;;;;5089132;28;20373;-74
2022/03/22 12:20:00;;;;;;;14.32;6.25;;;;;;;;;;5089818;28;20541;-74
2022/03/22 12:22:27;;;;;;;13.32;6.25;;;;;;;;;;5093142;28;20020;-74
2022/03/22 12:24:53;;;;;;;10.63;5.75;;;;;;;;;;5089192;28;20453;-74
2022/03/22 12:27:19;;;;;;;11.73;6.20;;;;;;;;;;5089724;28;20016;-73
2022/03/22 12:29:46;;;;;;;14.43;5.85;;;;;;;;;;5089256;28;20055;-73
2022/03/22 12:32:13;;;;;;;13.60;5.90;;;;;;;;;;5088251;28;20119;-73
2022/03/22 12:34:39;;;;;;;14.45;6.38;;;;;;;;;;5089085;28;20028;-73
2022/03/22 12:37:08;;;;;;;12.32;5.75;;;;;;;;;;5090896;28;20028;-73
2022/03/22 12:39:34;;;;;;;9.98;6.18;;;;;;;;;;5093251;28;20024;-73
2022/03/22 12:42:01;;;;;;;18.85;6.13;;;;;;;;;;5092454;28;20466;-73
2022/03/22 12:44:27;;;;;;;10.40;5.82;;;;;;;;;;5093446;28;20020;-73
2022/03/22 12:46:53;;;;;;;12.15;5.82;;;;;;;;;;5093267;28;20376;-73
2022/03/22 12:49:20;;;;;;;9.68;5.32;;;;;;;;;;5091963;28;20020;-75
2022/03/22 12:51:48;;;;;;;9.38;5.22;;;;;;;;;;5093022;28;20481;-74
2022/03/22 12:54:17;;;;;;;7.95;5.15;;;;;;;;;;5093128;28;20028;-74
2022/03/22 12:56:49;;;;;;;10.65;5.35;;;;;;;;;;5092762;28;20024;-75
2022/03/22 12:59:19;;;;;;;11.73;5.85;;;;;;;;;;5093019;28;20476;-75
2022/03/22 13:01:45;;;;;;;9.70;5.10;;;;;;;;;;5090270;28;20020;-75
2022/03/22 13:04:11;;;;;;;9.30;5.80;;;;;;;;;;5093018;28;20027;-74
2022/03/22 13:06:37;;;;;;;8.35;5.03;;;;;;;;;;5091427;28;20099;-74
2022/03/22 13:11:48;;;;;;;9.70;5.30;;;;;;;;;;5090833;28;20027;-75
2022/03/22 13:16:59;;;;;;;11.30;5.93;;;;;;;;;;5094647;28;20095;-74
2022/03/22 13:19:32;;;;;;;11.75;5.22;;;;;;;;;;5094436;28;20028;-75
2022/03/22 13:21:58;;;;;;;7.68;5.03;;;;;;;;;;5093229;28;20024;-77
2022/03/22 13:24:26;;;;;;;7.55;5.22;;;;;;;;;;5093397;28;20036;-75
2022/03/22 13:27:02;;;;;;;7.55;5.60;;;;;;;;;;5092768;28;20054;-75
2022/03/22 13:29:35;;;;;;;7.97;5.25;;;;;;;;;;5092928;28;20441;-75
2022/03/22 13:32:03;;;;;;;11.48;4.90;;;;;;;;;;5093038;28;20060;-75
2022/03/22 13:34:30;;;;;;;7.65;5.45;;;;;;;;;;5094136;28;20028;-74
2022/03/22 13:37:06;;;;;;;6.93;5.15;;;;;;;;;;5093674;28;20028;-74
2022/03/22 13:39:32;;;;;;;8.98;4.75;;;;;;;;;;5093274;28;20092;-74
2022/03/22 13:42:09;;;;;;;11.73;5.20;;;;;;;;;;5092471;28;20016;-74
2022/03/22 13:44:43;;;;;;;8.07;5.20;;;;;;;;;;5093556;28;20031;-75
2022/03/22 13:47:09;;;;;;;7.40;4.68;;;;;;;;;;5093732;28;20107;-75
2022/03/22 13:49:36;;;;;;;9.15;5.30;;;;;;;;;;5093442;28;20107;-74
2022/03/22 13:52:02;;;;;;;8.25;5.20;;;;;;;;;;5093852;28;20020;-74
2022/03/22 13:54:28;;;;;;;8.50;5.43;;;;;;;;;;5093954;28;20032;-74
2022/03/22 13:57:04;;;;;;;7.30;4.90;;;;;;;;;;5093304;28;20507;-74
2022/03/22 13:59:37;;;;;;;6.70;4.88;;;;;;;;;;5093695;28;20031;-75
2022/03/22 14:02:05;;;;;;;7.18;4.82;;;;;;;;;;5093543;28;20023;-74
2022/03/22 14:04:34;;;;;;;7.68;4.53;;;;;;;;;;5092407;28;20123;-75
2022/03/22 14:07:01;;;;;;;7.15;4.70;;;;;;;;;;5093654;28;20016;-75
2022/03/22 14:09:27;;;;;;;7.10;5.22;;;;;;;;;;5093506;28;20103;-75
2022/03/22 14:11:53;;;;;;;6.47;4.82;;;;;;;;;;5092896;28;20060;-75
2022/03/22 14:14:19;;;;;;;7.57;5.13;;;;;;;;;;5091781;28;20035;-74
2022/03/22 14:16:45;;;;;;;7.53;4.72;;;;;;;;;;5092961;28;20124;-74
2022/03/22 14:19:13;;;;;;;6.78;5.00;;;;;;;;;;5091822;28;20472;-74
2022/03/22 14:21:40;;;;;;;6.88;4.55;;;;;;;;;;5092800;28;20522;-75
2022/03/22 14:24:06;;;;;;;7.07;4.97;;;;;;;;;;5093012;28;20111;-75
2022/03/22 14:26:32;;;;;;;6.50;4.72;;;;;;;;;;5093205;28;20028;-75
2022/03/22 14:28:58;;;;;;;7.25;4.47;;;;;;;;;;5092596;28;20024;-74
2022/03/22 14:31:24;;;;;;;6.55;4.47;;;;;;;;;;5092869;28;20434;-76
2022/03/22 14:33:50;;;;;;;7.70;4.90;;;;;;;;;;5092679;28;20052;-74
2022/03/22 14:36:16;;;;;;;8.90;4.65;;;;;;;;;;5091432;28;20102;-75
2022/03/22 14:38:42;;;;;;;7.93;5.03;;;;;;;;;;5092524;28;20531;-77
2022/03/22 14:41:27;;;;;;;6.28;4.68;;;;;;;;;;5091318;28;20031;-74
2022/03/22 14:43:56;;;;;;;6.88;4.30;;;;;;;;;;5091046;28;20115;-74
2022/03/22 14:46:23;;;;;;;7.05;4.88;;;;;;;;;;5092678;28;20051;-74
2022/03/22 14:48:50;;;;;;;6.00;4.30;;;;;;;;;;5091080;28;20123;-74
2022/03/22 14:51:18;;;;;;;7.43;4.45;;;;;;;;;;5092530;28;20096;-75
2022/03/22 14:54:03;;;;;;;7.00;4.75;;;;;;;;;;5092149;28;20024;-75
2022/03/22 14:59:16;;;;;;;6.72;4.53;;;;;;;;;;5092166;28;20050;-74
2022/03/22 15:01:42;;;;;;;5.90;4.45;;;;;;;;;;5092102;28;20492;-75
2022/03/22 15:04:09;;;;;;;9.63;5.05;;;;;;;;;;5092239;28;20045;-74
2022/03/22 15:06:37;;;;;;;7.10;4.38;;;;;;;;;;5090729;28;20035;-77
2022/03/22 15:09:05;;;;;;;6.72;4.57;;;;;;;;;;5092250;28;20016;-75
2022/03/22 15:11:33;;;;;;;7.85;4.32;;;;;;;;;;5092445;28;20534;-78
2022/03/22 15:13:59;;;;;;;5.70;4.30;;;;;;;;;;5092435;28;20020;-77
2022/03/22 15:16:25;;;;;;;5.90;4.28;;;;;;;;;;5092095;28;20058;-78
2022/03/22 15:18:52;;;;;;;7.38;4.47;;;;;;;;;;5091968;28;20630;-76